createdAt,value
2017-08-05T00:00:10.358Z,0
2017-08-05T00:01:10.321Z,0
2017-08-05T00:02:10.380Z,0
2017-08-05T00:03:10.345Z,0
2017-08-05T00:04:10.366Z,0
2017-08-05T00:05:10.355Z,0
2017-08-05T00:06:10.388Z,0
2017-08-05T00:07:10.287Z,0
2017-08-05T00:08:10.345Z,0
2017-08-05T00:09:10.358Z,0
2017-08-05T00:10:10.338Z,0
2017-08-05T00:11:10.360Z,0
2017-08-05T00:12:10.381Z,0
2017-08-05T00:13:10.324Z,0
2017-08-05T00:14:10.331Z,0
2017-08-05T00:15:10.321Z,0
2017-08-05T00:16:10.316Z,0
2017-08-05T00:17:10.350Z,0
2017-08-05T00:18:10.289Z,0
2017-08-05T00:19:10.354Z,0
2017-08-05T00:20:10.322Z,0
2017-08-05T00:21:10.314Z,0
2017-08-05T00:22:10.351Z,0
2017-08-05T00:23:10.359Z,0
2017-08-05T00:24:10.298Z,0
2017-08-05T00:25:10.294Z,0
2017-08-05T00:26:10.326Z,0
2017-08-05T00:27:10.315Z,0
2017-08-05T00:28:10.297Z,0
2017-08-05T00:29:10.363Z,0
2017-08-05T00:30:10.323Z,0
2017-08-05T00:31:10.277Z,0
2017-08-05T00:32:10.328Z,0
2017-08-05T00:33:10.272Z,0
2017-08-05T00:34:10.277Z,0
2017-08-05T00:35:10.301Z,0
2017-08-05T00:36:10.372Z,0
2017-08-05T00:37:10.358Z,0
2017-08-05T00:38:10.338Z,0
2017-08-05T00:39:10.399Z,0
2017-08-05T00:40:10.378Z,0
2017-08-05T00:41:10.314Z,0
2017-08-05T00:42:10.315Z,0
2017-08-05T00:43:10.409Z,0
2017-08-05T00:44:10.348Z,0
2017-08-05T00:45:10.319Z,0
2017-08-05T00:46:10.310Z,0
2017-08-05T00:47:10.336Z,0
2017-08-05T00:48:10.423Z,0
2017-08-05T00:49:10.378Z,0
2017-08-05T00:50:10.401Z,0
2017-08-05T00:51:10.348Z,0
2017-08-05T00:52:10.353Z,0
2017-08-05T00:53:10.390Z,0
2017-08-05T00:54:10.405Z,0
2017-08-05T00:55:10.416Z,0
2017-08-05T00:56:10.347Z,0
2017-08-05T00:57:10.344Z,0
2017-08-05T00:58:10.339Z,0
2017-08-05T00:59:10.318Z,0
2017-08-05T01:00:10.382Z,0
2017-08-05T01:01:10.288Z,0
2017-08-05T01:02:10.296Z,0
2017-08-05T01:03:10.387Z,0
2017-08-05T01:04:10.341Z,0
2017-08-05T01:05:10.295Z,0
2017-08-05T01:06:10.345Z,0
2017-08-05T01:07:10.384Z,0
2017-08-05T01:08:10.388Z,0
2017-08-05T01:09:10.384Z,0
2017-08-05T01:10:10.385Z,0
2017-08-05T01:11:10.354Z,0
2017-08-05T01:12:10.352Z,0
2017-08-05T01:13:10.413Z,0
2017-08-05T01:14:10.387Z,0
2017-08-05T01:15:10.325Z,0
2017-08-05T01:16:10.324Z,0
2017-08-05T01:17:10.362Z,0
2017-08-05T01:18:10.356Z,0
2017-08-05T01:19:10.331Z,0
2017-08-05T01:20:10.364Z,0
2017-08-05T01:21:10.352Z,0
2017-08-05T01:22:10.349Z,0
2017-08-05T01:23:10.400Z,0
2017-08-05T01:24:10.358Z,0
2017-08-05T01:25:10.341Z,0
2017-08-05T01:26:10.392Z,0
2017-08-05T01:27:10.357Z,0
2017-08-05T01:28:10.361Z,0
2017-08-05T01:29:10.357Z,0
2017-08-05T01:30:10.356Z,0
2017-08-05T01:31:10.361Z,0
2017-08-05T01:32:10.359Z,0
2017-08-05T01:33:10.364Z,0
2017-08-05T01:34:10.398Z,0
2017-08-05T01:35:10.336Z,0
2017-08-05T01:36:10.364Z,0
2017-08-05T01:37:10.361Z,0
2017-08-05T01:38:10.311Z,0
2017-08-05T01:39:10.351Z,0
2017-08-05T01:40:10.324Z,0
2017-08-05T01:41:10.352Z,0
2017-08-05T01:42:10.296Z,0
2017-08-05T01:43:10.369Z,0
2017-08-05T01:44:10.372Z,0
2017-08-05T01:45:10.372Z,0
2017-08-05T01:46:10.353Z,0
2017-08-05T01:47:10.410Z,0
2017-08-05T01:48:10.408Z,0
2017-08-05T01:49:10.359Z,0
2017-08-05T01:50:10.370Z,0
2017-08-05T01:51:10.347Z,0
2017-08-05T01:52:10.350Z,0
2017-08-05T01:53:10.357Z,0
2017-08-05T01:54:10.318Z,0
2017-08-05T01:55:10.303Z,0
2017-08-05T01:56:10.366Z,0
2017-08-05T01:57:10.378Z,0
2017-08-05T01:58:10.453Z,0
2017-08-05T01:59:10.441Z,0
2017-08-05T02:00:10.451Z,0
2017-08-05T02:01:10.367Z,0
2017-08-05T02:02:10.451Z,0
2017-08-05T02:03:10.381Z,0
2017-08-05T02:04:10.446Z,0
2017-08-05T02:05:10.397Z,0
2017-08-05T02:06:10.379Z,0
2017-08-05T02:07:10.383Z,0
2017-08-05T02:08:10.417Z,0
2017-08-05T02:09:10.411Z,0
2017-08-05T02:10:10.380Z,0
2017-08-05T02:11:10.419Z,0
2017-08-05T02:12:10.420Z,0
2017-08-05T02:13:10.385Z,0
2017-08-05T02:14:10.368Z,0
2017-08-05T02:15:10.421Z,0
2017-08-05T02:16:10.421Z,0
2017-08-05T02:17:10.423Z,0
2017-08-05T02:18:10.357Z,0
2017-08-05T02:19:10.385Z,0
2017-08-05T02:20:10.398Z,0
2017-08-05T02:21:10.387Z,0
2017-08-05T02:22:10.388Z,0
2017-08-05T02:23:10.361Z,0
2017-08-05T02:24:10.429Z,0
2017-08-05T02:25:10.427Z,0
2017-08-05T02:26:10.389Z,0
2017-08-05T02:27:10.441Z,0
2017-08-05T02:28:10.473Z,0
2017-08-05T02:29:10.396Z,0
2017-08-05T02:30:10.373Z,0
2017-08-05T02:31:10.379Z,0
2017-08-05T02:32:10.429Z,0
2017-08-05T02:33:10.464Z,0
2017-08-05T02:34:10.463Z,0
2017-08-05T02:35:10.377Z,0
2017-08-05T02:36:10.401Z,0
2017-08-05T02:37:10.398Z,0
2017-08-05T02:38:10.373Z,0
2017-08-05T02:39:10.404Z,0
2017-08-05T02:40:10.399Z,0
2017-08-05T02:41:10.411Z,0
2017-08-05T02:42:10.400Z,0
2017-08-05T02:43:10.404Z,0
2017-08-05T02:44:10.408Z,0
2017-08-05T02:45:10.435Z,0
2017-08-05T02:46:10.418Z,0
2017-08-05T02:47:10.466Z,0
2017-08-05T02:48:10.456Z,0
2017-08-05T02:49:10.512Z,0
2017-08-05T02:50:10.476Z,0
2017-08-05T02:51:10.385Z,0
2017-08-05T02:52:10.460Z,0
2017-08-05T02:53:10.440Z,0
2017-08-05T02:54:10.492Z,0
2017-08-05T02:55:10.389Z,0
2017-08-05T02:56:10.429Z,0
2017-08-05T02:57:10.441Z,0
2017-08-05T02:58:10.483Z,0
2017-08-05T02:59:10.478Z,0
2017-08-05T03:00:10.395Z,0
2017-08-05T03:01:10.427Z,0
2017-08-05T03:02:10.397Z,0
2017-08-05T03:03:10.429Z,0
2017-08-05T03:04:10.456Z,0
2017-08-05T03:05:10.492Z,0
2017-08-05T03:06:10.394Z,0
2017-08-05T03:07:10.446Z,0
2017-08-05T03:08:10.470Z,0
2017-08-05T03:09:10.460Z,0
2017-08-05T03:10:10.432Z,0
2017-08-05T03:11:10.420Z,0
2017-08-05T03:12:10.493Z,0
2017-08-05T03:13:10.489Z,0
2017-08-05T03:14:10.437Z,0
2017-08-05T03:15:10.496Z,0
2017-08-05T03:16:10.489Z,0
2017-08-05T03:17:10.435Z,0
2017-08-05T03:18:10.431Z,0
2017-08-05T03:19:10.437Z,0
2017-08-05T03:20:10.461Z,0
2017-08-05T03:21:10.497Z,0
2017-08-05T03:22:10.456Z,0
2017-08-05T03:23:10.436Z,0
2017-08-05T03:24:10.408Z,0
2017-08-05T03:25:10.405Z,0
2017-08-05T03:26:10.458Z,0
2017-08-05T03:27:10.406Z,0
2017-08-05T03:28:10.501Z,0
2017-08-05T03:29:10.464Z,0
2017-08-05T03:30:10.410Z,0
2017-08-05T03:31:10.474Z,0
2017-08-05T03:32:10.413Z,0
2017-08-05T03:33:10.412Z,0
2017-08-05T03:34:10.467Z,5
2017-08-05T03:35:10.465Z,5
2017-08-05T03:36:10.500Z,5
2017-08-05T03:37:10.361Z,5
2017-08-05T03:38:10.482Z,5
2017-08-05T03:39:10.480Z,5
2017-08-05T03:40:10.435Z,5
2017-08-05T03:41:10.409Z,5
2017-08-05T03:42:10.437Z,5
2017-08-05T03:43:10.431Z,5
2017-08-05T03:44:10.480Z,5
2017-08-05T03:45:10.371Z,11
2017-08-05T03:46:10.436Z,11
2017-08-05T03:47:10.446Z,11
2017-08-05T03:48:10.444Z,11
2017-08-05T03:49:10.416Z,11
2017-08-05T03:50:10.424Z,16
2017-08-05T03:51:10.514Z,22
2017-08-05T03:52:10.489Z,22
2017-08-05T03:53:10.453Z,22
2017-08-05T03:54:10.458Z,22
2017-08-05T03:55:10.460Z,22
2017-08-05T03:56:10.517Z,22
2017-08-05T03:57:10.478Z,22
2017-08-05T03:58:10.518Z,28
2017-08-05T03:59:10.456Z,33
2017-08-05T04:00:10.477Z,33
2017-08-05T04:01:10.477Z,33
2017-08-05T04:02:10.466Z,33
2017-08-05T04:03:10.434Z,28
2017-08-05T04:04:10.431Z,28
2017-08-05T04:05:10.427Z,33
2017-08-05T04:06:10.465Z,33
2017-08-05T04:07:10.433Z,33
2017-08-05T04:08:10.467Z,33
2017-08-05T04:09:10.494Z,33
2017-08-05T04:10:10.432Z,33
2017-08-05T04:11:10.504Z,39
2017-08-05T04:12:10.432Z,39
2017-08-05T04:13:10.460Z,45
2017-08-05T04:14:10.506Z,45
2017-08-05T04:15:10.490Z,45
2017-08-05T04:16:10.468Z,45
2017-08-05T04:17:10.497Z,39
2017-08-05T04:18:10.458Z,33
2017-08-05T04:19:10.413Z,33
2017-08-05T04:20:10.472Z,33
2017-08-05T04:21:10.405Z,39
2017-08-05T04:22:10.461Z,39
2017-08-05T04:23:10.432Z,45
2017-08-05T04:24:10.438Z,50
2017-08-05T04:25:10.434Z,56
2017-08-05T04:26:10.449Z,67
2017-08-05T04:27:10.435Z,67
2017-08-05T04:28:10.495Z,73
2017-08-05T04:29:10.497Z,78
2017-08-05T04:30:10.435Z,90
2017-08-05T04:31:10.496Z,90
2017-08-05T04:32:10.435Z,90
2017-08-05T04:33:10.503Z,84
2017-08-05T04:34:10.497Z,78
2017-08-05T04:35:10.496Z,78
2017-08-05T04:36:10.466Z,78
2017-08-05T04:37:10.499Z,78
2017-08-05T04:38:10.472Z,78
2017-08-05T04:39:10.438Z,84
2017-08-05T04:40:10.437Z,84
2017-08-05T04:41:10.442Z,78
2017-08-05T04:42:10.441Z,84
2017-08-05T04:43:10.472Z,84
2017-08-05T04:44:10.441Z,84
2017-08-05T04:45:10.474Z,90
2017-08-05T04:46:10.440Z,95
2017-08-05T04:47:10.482Z,90
2017-08-05T04:48:10.545Z,84
2017-08-05T04:49:10.475Z,78
2017-08-05T04:50:10.455Z,78
2017-08-05T04:51:10.522Z,84
2017-08-05T04:52:10.515Z,90
2017-08-05T04:53:10.481Z,90
2017-08-05T04:54:10.469Z,90
2017-08-05T04:55:10.482Z,84
2017-08-05T04:56:10.525Z,84
2017-08-05T04:57:10.549Z,90
2017-08-05T04:58:10.518Z,90
2017-08-05T04:59:10.528Z,84
2017-08-05T05:00:10.466Z,73
2017-08-05T05:01:10.523Z,67
2017-08-05T05:02:10.551Z,61
2017-08-05T05:03:10.515Z,61
2017-08-05T05:04:10.560Z,67
2017-08-05T05:05:10.497Z,67
2017-08-05T05:06:10.502Z,61
2017-08-05T05:07:10.504Z,56
2017-08-05T05:08:10.538Z,56
2017-08-05T05:09:10.561Z,61
2017-08-05T05:10:10.538Z,61
2017-08-05T05:11:10.557Z,61
2017-08-05T05:12:10.541Z,56
2017-08-05T05:13:10.557Z,56
2017-08-05T05:14:10.543Z,61
2017-08-05T05:15:10.561Z,73
2017-08-05T05:16:10.489Z,78
2017-08-05T05:17:10.543Z,78
2017-08-05T05:18:10.511Z,73
2017-08-05T05:19:10.560Z,78
2017-08-05T05:20:10.504Z,90
2017-08-05T05:22:10.510Z,129
2017-08-05T05:23:10.470Z,151
2017-08-05T05:24:10.504Z,185
2017-08-05T05:25:10.499Z,213
2017-08-05T05:26:10.510Z,208
2017-08-05T05:27:10.465Z,196
2017-08-05T05:28:10.529Z,163
2017-08-05T05:29:10.496Z,146
2017-08-05T05:30:10.499Z,163
2017-08-05T05:31:10.471Z,185
2017-08-05T05:32:10.532Z,219
2017-08-05T05:33:10.533Z,241
2017-08-05T05:34:10.468Z,264
2017-08-05T05:35:10.504Z,281
2017-08-05T05:36:10.502Z,303
2017-08-05T05:37:10.530Z,320
2017-08-05T05:38:10.473Z,348
2017-08-05T05:39:10.509Z,376
2017-08-05T05:40:10.474Z,405
2017-08-05T05:41:10.477Z,427
2017-08-05T05:42:10.537Z,450
2017-08-05T05:43:10.499Z,461
2017-08-05T05:44:10.539Z,461
2017-08-05T05:45:10.475Z,455
2017-08-05T05:46:10.568Z,438
2017-08-05T05:47:10.528Z,472
2017-08-05T05:48:10.487Z,573
2017-08-05T05:49:10.513Z,607
2017-08-05T05:50:10.548Z,573
2017-08-05T05:51:10.547Z,556
2017-08-05T05:52:10.577Z,579
2017-08-05T05:53:10.566Z,601
2017-08-05T05:54:10.501Z,613
2017-08-05T05:55:10.525Z,630
2017-08-05T05:56:10.566Z,641
2017-08-05T05:57:10.495Z,590
2017-08-05T05:58:10.493Z,511
2017-08-05T05:59:10.569Z,433
2017-08-05T06:00:10.678Z,388
2017-08-05T06:01:10.566Z,343
2017-08-05T06:02:10.504Z,315
2017-08-05T06:03:10.562Z,309
2017-08-05T06:04:10.547Z,315
2017-08-05T06:05:10.600Z,331
2017-08-05T06:06:10.560Z,348
2017-08-05T06:07:10.489Z,365
2017-08-05T06:08:10.554Z,376
2017-08-05T06:09:10.489Z,405
2017-08-05T06:10:10.588Z,421
2017-08-05T06:11:10.491Z,427
2017-08-05T06:12:10.493Z,405
2017-08-05T06:13:10.573Z,388
2017-08-05T06:14:10.556Z,360
2017-08-05T06:15:10.494Z,320
2017-08-05T06:16:10.525Z,298
2017-08-05T06:17:10.505Z,303
2017-08-05T06:18:10.498Z,309
2017-08-05T06:19:10.506Z,309
2017-08-05T06:20:10.445Z,292
2017-08-05T06:21:10.526Z,270
2017-08-05T06:22:10.509Z,247
2017-08-05T06:23:10.437Z,236
2017-08-05T06:24:10.423Z,247
2017-08-05T06:25:10.498Z,281
2017-08-05T06:26:10.502Z,275
2017-08-05T06:27:10.599Z,264
2017-08-05T06:28:10.509Z,275
2017-08-05T06:29:10.516Z,275
2017-08-05T06:30:10.511Z,264
2017-08-05T06:31:10.603Z,225
2017-08-05T06:32:10.570Z,185
2017-08-05T06:33:10.601Z,185
2017-08-05T06:34:10.513Z,185
2017-08-05T06:35:10.586Z,180
2017-08-05T06:36:10.518Z,191
2017-08-05T06:37:10.605Z,225
2017-08-05T06:38:10.555Z,258
2017-08-05T06:39:10.608Z,253
2017-08-05T06:40:10.541Z,247
2017-08-05T06:41:10.593Z,241
2017-08-05T06:42:10.540Z,236
2017-08-05T06:43:10.552Z,275
2017-08-05T06:44:10.612Z,331
2017-08-05T06:45:10.591Z,343
2017-08-05T06:46:10.595Z,337
2017-08-05T06:47:10.580Z,348
2017-08-05T06:48:10.564Z,360
2017-08-05T06:49:10.596Z,365
2017-08-05T06:50:10.553Z,365
2017-08-05T06:51:10.517Z,337
2017-08-05T06:52:10.598Z,315
2017-08-05T06:53:10.554Z,326
2017-08-05T06:54:10.557Z,326
2017-08-05T06:55:10.579Z,343
2017-08-05T06:56:10.547Z,343
2017-08-05T06:57:10.582Z,348
2017-08-05T06:58:10.524Z,365
2017-08-05T06:59:10.525Z,371
2017-08-05T07:00:10.523Z,376
2017-08-05T07:01:10.561Z,410
2017-08-05T07:02:10.585Z,461
2017-08-05T07:03:10.587Z,540
2017-08-05T07:04:10.526Z,607
2017-08-05T07:05:10.589Z,613
2017-08-05T07:06:10.590Z,579
2017-08-05T07:07:10.622Z,590
2017-08-05T07:08:10.603Z,590
2017-08-05T07:09:10.600Z,562
2017-08-05T07:10:10.592Z,534
2017-08-05T07:11:10.539Z,534
2017-08-05T07:12:10.602Z,495
2017-08-05T07:13:10.570Z,455
2017-08-05T07:14:10.573Z,438
2017-08-05T07:15:10.535Z,388
2017-08-05T07:16:10.626Z,376
2017-08-05T07:17:10.654Z,354
2017-08-05T07:18:10.566Z,320
2017-08-05T07:19:10.560Z,326
2017-08-05T07:20:10.598Z,354
2017-08-05T07:21:10.579Z,388
2017-08-05T07:22:10.566Z,365
2017-08-05T07:23:10.528Z,315
2017-08-05T07:24:10.599Z,320
2017-08-05T07:25:10.605Z,337
2017-08-05T07:26:10.598Z,388
2017-08-05T07:27:10.538Z,433
2017-08-05T07:28:10.614Z,438
2017-08-05T07:29:10.550Z,466
2017-08-05T07:30:10.569Z,483
2017-08-05T07:31:10.608Z,545
2017-08-05T07:32:10.554Z,607
2017-08-05T07:33:10.644Z,658
2017-08-05T07:34:10.624Z,663
2017-08-05T07:35:10.606Z,641
2017-08-05T07:36:10.589Z,663
2017-08-05T07:37:10.573Z,669
2017-08-05T07:38:10.612Z,652
2017-08-05T07:39:10.573Z,675
2017-08-05T07:40:10.551Z,675
2017-08-05T07:41:10.551Z,663
2017-08-05T07:42:10.586Z,635
2017-08-05T07:43:10.639Z,568
2017-08-05T07:44:10.622Z,517
2017-08-05T07:45:10.552Z,500
2017-08-05T07:46:10.624Z,455
2017-08-05T07:47:10.576Z,433
2017-08-05T07:48:10.584Z,405
2017-08-05T07:49:10.650Z,388
2017-08-05T07:50:10.654Z,360
2017-08-05T07:51:10.613Z,343
2017-08-05T07:52:10.566Z,326
2017-08-05T07:53:10.615Z,315
2017-08-05T07:54:10.599Z,315
2017-08-05T07:55:10.596Z,326
2017-08-05T07:56:10.600Z,371
2017-08-05T07:57:10.611Z,371
2017-08-05T07:58:10.616Z,421
2017-08-05T07:59:10.559Z,461
2017-08-05T08:00:10.590Z,438
2017-08-05T08:01:10.629Z,444
2017-08-05T08:02:10.556Z,444
2017-08-05T08:03:10.623Z,427
2017-08-05T08:04:10.558Z,376
2017-08-05T08:05:10.619Z,360
2017-08-05T08:06:10.560Z,365
2017-08-05T08:07:10.595Z,405
2017-08-05T08:08:10.547Z,478
2017-08-05T08:09:10.563Z,545
2017-08-05T08:10:10.573Z,652
2017-08-05T08:11:10.586Z,748
2017-08-05T08:12:10.584Z,798
2017-08-05T08:13:10.585Z,821
2017-08-05T08:14:10.563Z,793
2017-08-05T08:15:10.585Z,742
2017-08-05T08:16:10.509Z,714
2017-08-05T08:17:10.550Z,742
2017-08-05T08:18:10.565Z,708
2017-08-05T08:19:10.629Z,658
2017-08-05T08:20:10.565Z,652
2017-08-05T08:21:10.572Z,658
2017-08-05T08:22:10.604Z,652
2017-08-05T08:23:10.640Z,635
2017-08-05T08:24:10.571Z,641
2017-08-05T08:25:10.569Z,675
2017-08-05T08:26:10.632Z,669
2017-08-05T08:27:10.634Z,601
2017-08-05T08:28:10.573Z,585
2017-08-05T08:29:10.572Z,585
2017-08-05T08:30:10.574Z,585
2017-08-05T08:31:10.579Z,579
2017-08-05T08:32:10.605Z,551
2017-08-05T08:33:10.607Z,495
2017-08-05T08:34:10.687Z,489
2017-08-05T08:35:10.574Z,511
2017-08-05T08:36:10.643Z,545
2017-08-05T08:37:10.620Z,607
2017-08-05T08:38:10.614Z,652
2017-08-05T08:39:10.647Z,736
2017-08-05T08:40:10.642Z,866
2017-08-05T08:41:10.623Z,973
2017-08-05T08:42:10.652Z,883
2017-08-05T08:43:10.617Z,787
2017-08-05T08:44:10.684Z,781
2017-08-05T08:45:10.718Z,787
2017-08-05T08:46:10.655Z,776
2017-08-05T08:47:10.597Z,753
2017-08-05T08:48:10.595Z,731
2017-08-05T08:49:10.680Z,714
2017-08-05T08:50:10.687Z,691
2017-08-05T08:51:10.615Z,618
2017-08-05T08:52:10.614Z,568
2017-08-05T08:53:10.596Z,630
2017-08-05T08:54:10.631Z,697
2017-08-05T08:55:10.665Z,736
2017-08-05T08:56:10.591Z,956
2017-08-05T08:57:10.599Z,1113
2017-08-05T08:58:10.655Z,1198
2017-08-05T08:59:10.651Z,1243
2017-08-05T09:00:10.705Z,1063
2017-08-05T09:01:10.627Z,888
2017-08-05T09:02:10.601Z,810
2017-08-05T09:03:10.664Z,883
2017-08-05T09:04:10.674Z,911
2017-08-05T09:05:10.638Z,995
2017-08-05T09:06:10.637Z,995
2017-08-05T09:07:10.628Z,804
2017-08-05T09:08:10.659Z,680
2017-08-05T09:09:10.642Z,680
2017-08-05T09:10:10.616Z,781
2017-08-05T09:11:10.599Z,883
2017-08-05T09:12:10.664Z,939
2017-08-05T09:13:10.665Z,956
2017-08-05T09:14:10.602Z,888
2017-08-05T09:15:10.602Z,798
2017-08-05T09:16:10.631Z,725
2017-08-05T09:17:10.606Z,641
2017-08-05T09:18:10.600Z,618
2017-08-05T09:19:10.599Z,697
2017-08-05T09:20:10.635Z,793
2017-08-05T09:21:10.634Z,776
2017-08-05T09:22:10.639Z,635
2017-08-05T09:23:10.681Z,511
2017-08-05T09:24:10.633Z,478
2017-08-05T09:25:10.663Z,489
2017-08-05T09:26:10.606Z,540
2017-08-05T09:27:10.606Z,641
2017-08-05T09:28:10.634Z,720
2017-08-05T09:29:10.630Z,675
2017-08-05T09:30:10.652Z,613
2017-08-05T09:31:10.638Z,551
2017-08-05T09:32:10.631Z,483
2017-08-05T09:33:10.644Z,444
2017-08-05T09:34:10.639Z,444
2017-08-05T09:35:10.765Z,489
2017-08-05T09:36:10.647Z,478
2017-08-05T09:37:10.631Z,444
2017-08-05T09:38:10.716Z,410
2017-08-05T09:39:10.661Z,371
2017-08-05T09:40:10.622Z,354
2017-08-05T09:41:10.659Z,365
2017-08-05T09:42:10.656Z,393
2017-08-05T09:43:10.751Z,517
2017-08-05T09:44:10.698Z,669
2017-08-05T09:45:10.657Z,697
2017-08-05T09:46:10.659Z,635
2017-08-05T09:47:10.698Z,607
2017-08-05T09:48:10.626Z,641
2017-08-05T09:49:10.688Z,618
2017-08-05T09:50:10.704Z,590
2017-08-05T09:51:10.669Z,630
2017-08-05T09:52:10.660Z,703
2017-08-05T09:53:10.695Z,669
2017-08-05T09:54:10.635Z,635
2017-08-05T09:55:10.630Z,601
2017-08-05T09:56:10.626Z,573
2017-08-05T09:57:10.704Z,596
2017-08-05T09:58:10.700Z,646
2017-08-05T09:59:10.702Z,714
2017-08-05T10:00:10.731Z,810
2017-08-05T10:01:10.691Z,804
2017-08-05T10:02:10.639Z,663
2017-08-05T10:03:10.695Z,607
2017-08-05T10:04:10.692Z,618
2017-08-05T10:05:10.672Z,658
2017-08-05T10:06:10.710Z,669
2017-08-05T10:07:10.674Z,658
2017-08-05T10:08:10.684Z,641
2017-08-05T10:09:10.715Z,596
2017-08-05T10:10:10.696Z,528
2017-08-05T10:11:10.671Z,489
2017-08-05T10:12:10.674Z,506
2017-08-05T10:13:10.723Z,551
2017-08-05T10:14:10.643Z,596
2017-08-05T10:15:10.679Z,596
2017-08-05T10:16:10.645Z,556
2017-08-05T10:17:10.673Z,528
2017-08-05T10:18:10.681Z,495
2017-08-05T10:19:10.706Z,461
2017-08-05T10:20:10.708Z,444
2017-08-05T10:21:10.717Z,461
2017-08-05T10:22:10.709Z,495
2017-08-05T10:23:10.688Z,534
2017-08-05T10:24:10.692Z,568
2017-08-05T10:25:10.649Z,562
2017-08-05T10:26:10.708Z,511
2017-08-05T10:27:10.677Z,495
2017-08-05T10:28:10.685Z,495
2017-08-05T10:29:10.709Z,483
2017-08-05T10:30:10.717Z,461
2017-08-05T10:31:10.687Z,472
2017-08-05T10:32:10.752Z,438
2017-08-05T10:33:10.710Z,450
2017-08-05T10:34:10.750Z,534
2017-08-05T10:35:10.695Z,630
2017-08-05T10:36:10.697Z,686
2017-08-05T10:37:10.749Z,770
2017-08-05T10:38:10.659Z,1063
2017-08-05T10:39:10.748Z,1305
2017-08-05T10:40:10.713Z,1299
2017-08-05T10:41:10.752Z,995
2017-08-05T10:42:10.748Z,691
2017-08-05T10:43:10.696Z,556
2017-08-05T10:44:10.717Z,500
2017-08-05T10:45:10.690Z,450
2017-08-05T10:46:10.667Z,393
2017-08-05T10:47:10.659Z,348
2017-08-05T10:48:10.697Z,326
2017-08-05T10:49:10.686Z,354
2017-08-05T10:50:10.699Z,399
2017-08-05T10:51:10.759Z,410
2017-08-05T10:52:10.729Z,421
2017-08-05T10:53:10.729Z,416
2017-08-05T10:54:10.699Z,365
2017-08-05T10:55:10.703Z,331
2017-08-05T10:56:10.693Z,365
2017-08-05T10:57:10.669Z,388
2017-08-05T10:58:10.692Z,382
2017-08-05T10:59:10.689Z,348
2017-08-05T11:00:10.723Z,315
2017-08-05T11:01:10.729Z,303
2017-08-05T11:02:10.691Z,320
2017-08-05T11:03:10.725Z,376
2017-08-05T11:04:10.661Z,410
2017-08-05T11:05:10.730Z,421
2017-08-05T11:06:10.662Z,433
2017-08-05T11:07:10.692Z,427
2017-08-05T11:08:10.667Z,393
2017-08-05T11:09:10.733Z,399
2017-08-05T11:10:10.666Z,444
2017-08-05T11:11:10.668Z,472
2017-08-05T11:12:10.735Z,483
2017-08-05T11:13:10.673Z,528
2017-08-05T11:14:10.735Z,624
2017-08-05T11:15:10.675Z,675
2017-08-05T11:16:10.672Z,658
2017-08-05T11:17:10.700Z,635
2017-08-05T11:19:10.735Z,967
2017-08-05T11:20:10.668Z,1462
2017-08-05T11:21:10.734Z,1614
2017-08-05T11:22:10.676Z,1456
2017-08-05T11:23:10.675Z,1411
2017-08-05T11:24:10.705Z,1642
2017-08-05T11:25:10.672Z,1687
2017-08-05T11:26:10.745Z,1428
2017-08-05T11:27:10.703Z,1147
2017-08-05T11:28:10.745Z,1006
2017-08-05T11:29:10.757Z,1265
2017-08-05T11:30:10.749Z,1389
2017-08-05T11:31:10.764Z,1496
2017-08-05T11:32:10.782Z,1805
2017-08-05T11:33:10.775Z,2193
2017-08-05T11:34:10.715Z,2278
2017-08-05T11:35:10.759Z,2160
2017-08-05T11:36:10.756Z,1693
2017-08-05T11:37:10.754Z,1254
2017-08-05T11:38:10.721Z,1006
2017-08-05T11:39:10.694Z,860
2017-08-05T11:40:10.726Z,759
2017-08-05T11:41:10.733Z,742
2017-08-05T11:42:10.693Z,765
2017-08-05T11:43:10.734Z,838
2017-08-05T11:44:10.697Z,984
2017-08-05T11:45:10.696Z,978
2017-08-05T11:46:10.696Z,950
2017-08-05T11:47:10.696Z,945
2017-08-05T11:48:10.786Z,928
2017-08-05T11:49:10.759Z,1051
2017-08-05T11:50:10.705Z,1411
2017-08-05T11:51:10.700Z,1946
2017-08-05T11:52:10.775Z,1918
2017-08-05T11:53:10.706Z,1507
2017-08-05T11:54:10.767Z,1215
2017-08-05T11:55:10.708Z,1096
2017-08-05T11:56:10.740Z,1001
2017-08-05T11:57:10.721Z,939
2017-08-05T11:58:10.798Z,950
2017-08-05T11:59:10.757Z,1057
2017-08-05T12:00:10.727Z,1147
2017-08-05T12:01:10.723Z,1170
2017-08-05T12:02:10.776Z,1203
2017-08-05T12:03:10.723Z,1265
2017-08-05T12:04:10.736Z,1366
2017-08-05T12:05:10.729Z,1496
2017-08-05T12:06:10.735Z,1659
2017-08-05T12:07:10.770Z,1805
2017-08-05T12:08:10.703Z,2030
2017-08-05T12:09:10.767Z,2368
2017-08-05T12:10:10.744Z,2660
2017-08-05T12:11:10.746Z,2520
2017-08-05T12:12:10.785Z,2188
2017-08-05T12:13:10.741Z,1828
2017-08-05T12:14:10.789Z,1563
2017-08-05T12:15:10.743Z,1361
2017-08-05T12:16:10.800Z,1203
2017-08-05T12:17:10.717Z,1158
2017-08-05T12:18:10.753Z,1096
2017-08-05T12:19:10.707Z,1012
2017-08-05T12:20:10.739Z,905
2017-08-05T12:21:10.772Z,961
2017-08-05T12:22:10.712Z,1108
2017-08-05T12:23:10.741Z,1293
2017-08-05T12:24:10.742Z,1411
2017-08-05T12:25:10.773Z,1451
2017-08-05T12:26:10.713Z,1451
2017-08-05T12:27:10.772Z,1597
2017-08-05T12:28:10.707Z,1901
2017-08-05T12:29:10.816Z,2255
2017-08-05T12:30:10.724Z,2536
2017-08-05T12:31:10.750Z,2981
2017-08-05T12:32:10.747Z,4888
2017-08-05T12:33:10.731Z,3498
2017-08-05T12:34:10.794Z,5686
2017-08-05T12:35:10.785Z,3262
2017-08-05T12:36:10.787Z,3026
2017-08-05T12:37:10.821Z,2615
2017-08-05T12:38:10.813Z,2221
2017-08-05T12:39:10.730Z,1771
2017-08-05T12:40:10.795Z,1451
2017-08-05T12:41:10.765Z,1321
2017-08-05T12:42:10.765Z,1153
2017-08-05T12:43:10.770Z,1130
2017-08-05T12:44:10.762Z,1440
2017-08-05T12:45:10.827Z,1636
2017-08-05T12:46:10.738Z,1541
2017-08-05T12:47:10.802Z,1237
2017-08-05T12:48:10.806Z,855
2017-08-05T12:49:10.790Z,714
2017-08-05T12:50:10.739Z,725
2017-08-05T12:51:10.737Z,776
2017-08-05T12:52:10.735Z,781
2017-08-05T12:53:10.804Z,798
2017-08-05T12:54:10.798Z,1018
2017-08-05T12:55:10.764Z,1501
2017-08-05T12:56:10.744Z,1738
2017-08-05T12:57:10.776Z,1710
2017-08-05T12:58:10.774Z,1597
2017-08-05T12:59:10.798Z,1406
2017-08-05T13:00:10.807Z,1389
2017-08-05T13:01:10.775Z,1620
2017-08-05T13:02:10.774Z,1974
2017-08-05T13:03:10.835Z,2205
2017-08-05T13:04:10.815Z,2261
2017-08-05T13:05:10.770Z,2143
2017-08-05T13:06:10.741Z,2025
2017-08-05T13:07:10.806Z,1951
2017-08-05T13:08:10.817Z,1935
2017-08-05T13:09:10.759Z,1963
2017-08-05T13:10:10.742Z,1929
2017-08-05T13:11:10.759Z,2081
2017-08-05T13:12:10.762Z,2115
2017-08-05T13:13:10.685Z,2148
2017-08-05T13:14:10.746Z,2165
2017-08-05T13:15:10.767Z,2221
2017-08-05T13:16:10.766Z,2469
2017-08-05T13:17:10.745Z,2379
2017-08-05T13:18:10.770Z,2131
2017-08-05T13:19:10.759Z,2109
2017-08-05T13:20:10.807Z,2165
2017-08-05T13:21:10.786Z,2193
2017-08-05T13:22:10.791Z,2390
2017-08-05T13:23:10.754Z,2306
2017-08-05T13:24:10.782Z,1918
2017-08-05T13:25:10.840Z,2120
2017-08-05T13:26:10.793Z,2368
2017-08-05T13:27:10.761Z,2480
2017-08-05T13:28:10.820Z,2486
2017-08-05T13:29:10.757Z,2407
2017-08-05T13:30:10.761Z,2278
2017-08-05T13:31:10.836Z,2373
2017-08-05T13:32:10.831Z,2452
2017-08-05T13:33:10.797Z,2430
2017-08-05T13:34:10.849Z,2610
2017-08-05T13:35:10.768Z,3240
2017-08-05T13:36:10.794Z,7441
2017-08-05T13:37:10.848Z,4398
2017-08-05T13:38:10.796Z,2829
2017-08-05T13:39:10.763Z,2846
2017-08-05T13:40:10.838Z,3566
2017-08-05T13:41:10.803Z,2424
2017-08-05T13:42:10.795Z,2131
2017-08-05T13:43:10.769Z,2655
2017-08-05T13:44:10.817Z,3020
2017-08-05T13:45:10.807Z,2143
2017-08-05T13:46:10.836Z,2160
2017-08-05T13:47:10.769Z,2340
2017-08-05T13:48:10.769Z,1957
2017-08-05T13:49:10.804Z,2565
2017-08-05T13:50:10.805Z,3819
2017-08-05T13:51:10.868Z,3729
2017-08-05T13:52:10.770Z,3099
2017-08-05T13:53:10.834Z,2745
2017-08-05T13:54:10.773Z,2520
2017-08-05T13:55:10.848Z,2396
2017-08-05T13:56:10.867Z,2655
2017-08-05T13:57:10.812Z,2475
2017-08-05T13:58:10.780Z,3341
2017-08-05T13:59:10.840Z,6243
2017-08-05T14:00:10.813Z,2936
2017-08-05T14:01:10.781Z,2255